createdAt,value
2022-11-21T00:00:05.176Z,992
2022-11-21T00:03:05.151Z,992
2022-11-21T00:06:05.178Z,992
2022-11-21T00:09:05.186Z,992
2022-11-21T00:12:05.223Z,992
2022-11-21T00:15:05.200Z,992
2022-11-21T00:18:05.196Z,992
2022-11-21T00:21:05.145Z,992
2022-11-21T00:24:05.167Z,992
2022-11-21T00:27:05.157Z,992
2022-11-21T00:30:05.242Z,992
2022-11-21T00:33:05.169Z,992
2022-11-21T00:36:05.136Z,992
2022-11-21T00:39:05.179Z,992
2022-11-21T00:42:05.169Z,992
2022-11-21T00:45:05.175Z,992
2022-11-21T00:48:05.174Z,992
2022-11-21T00:51:05.573Z,992
2022-11-21T00:54:05.104Z,992
2022-11-21T00:57:05.163Z,992
2022-11-21T01:00:05.182Z,992
2022-11-21T01:03:05.124Z,992
2022-11-21T01:06:05.259Z,991
2022-11-21T01:09:05.154Z,991
2022-11-21T01:12:05.127Z,991
2022-11-21T01:15:05.213Z,991
2022-11-21T01:18:05.133Z,991
2022-11-21T01:21:05.116Z,991
2022-11-21T01:24:05.174Z,992
2022-11-21T01:27:05.350Z,992
2022-11-21T01:30:05.268Z,992
2022-11-21T01:33:05.180Z,992
2022-11-21T01:36:05.192Z,992
2022-11-21T01:39:05.139Z,992
2022-11-21T01:42:05.197Z,992
2022-11-21T01:45:05.198Z,992
2022-11-21T01:48:05.169Z,992
2022-11-21T01:51:05.116Z,992
2022-11-21T01:54:05.205Z,992
2022-11-21T01:57:05.175Z,992
2022-11-21T02:00:05.280Z,992
2022-11-21T02:03:05.205Z,992
2022-11-21T02:06:05.178Z,992
2022-11-21T02:09:05.081Z,992
2022-11-21T02:12:05.175Z,992
2022-11-21T02:15:05.184Z,992
2022-11-21T02:18:05.235Z,992
2022-11-21T02:21:05.161Z,992
2022-11-21T02:24:05.407Z,992
2022-11-21T02:27:05.124Z,992
2022-11-21T02:30:05.205Z,992
2022-11-21T02:33:05.123Z,992
2022-11-21T02:36:05.222Z,992
2022-11-21T02:39:05.199Z,992
2022-11-21T02:42:05.196Z,992
2022-11-21T02:45:05.180Z,992
2022-11-21T02:48:09.071Z,992
2022-11-21T02:51:05.169Z,992
2022-11-21T02:54:05.254Z,992
2022-11-21T02:57:05.141Z,992
2022-11-21T03:00:05.321Z,992
2022-11-21T03:03:05.116Z,992
2022-11-21T03:06:05.160Z,992
2022-11-21T03:09:05.185Z,992
2022-11-21T03:12:05.273Z,992
2022-11-21T03:15:05.221Z,992
2022-11-21T03:18:05.517Z,992
2022-11-21T03:21:05.235Z,992
2022-11-21T03:24:05.180Z,992
2022-11-21T03:27:05.159Z,992
2022-11-21T03:30:05.147Z,992
2022-11-21T03:33:05.188Z,992
2022-11-21T03:36:05.261Z,992
2022-11-21T03:39:05.252Z,992
2022-11-21T03:42:05.153Z,992
2022-11-21T03:45:05.162Z,992
2022-11-21T03:48:05.165Z,992
2022-11-21T03:51:05.201Z,992
2022-11-21T03:54:05.177Z,992
2022-11-21T03:57:05.190Z,992
2022-11-21T04:00:05.202Z,992
2022-11-21T04:03:05.190Z,992
2022-11-21T04:06:05.120Z,992
2022-11-21T04:09:05.152Z,992
2022-11-21T04:12:12.286Z,992
2022-11-21T04:15:08.150Z,992
2022-11-21T04:18:05.210Z,992
2022-11-21T04:21:05.188Z,993
2022-11-21T04:24:05.162Z,993
2022-11-21T04:27:05.173Z,993
2022-11-21T04:30:05.261Z,993
2022-11-21T04:33:05.241Z,993
2022-11-21T04:36:05.167Z,993
2022-11-21T04:39:05.165Z,993
2022-11-21T04:42:05.154Z,993
2022-11-21T04:45:05.239Z,993
2022-11-21T04:48:05.199Z,993
2022-11-21T04:51:05.210Z,993
2022-11-21T04:54:05.202Z,993
2022-11-21T04:57:05.138Z,993
2022-11-21T05:00:05.367Z,993
2022-11-21T05:03:05.158Z,993
2022-11-21T05:06:05.314Z,992
2022-11-21T05:09:05.210Z,992
2022-11-21T05:12:05.150Z,992
2022-11-21T05:15:05.167Z,993
2022-11-21T05:18:05.175Z,993
2022-11-21T05:21:05.127Z,993
2022-11-21T05:24:05.189Z,993
2022-11-21T05:27:05.135Z,993
2022-11-21T05:30:05.176Z,993
2022-11-21T05:33:05.134Z,993
2022-11-21T05:36:05.221Z,993
2022-11-21T05:39:05.159Z,993
2022-11-21T05:42:07.958Z,993
2022-11-21T05:45:05.130Z,993
2022-11-21T05:48:05.347Z,993
2022-11-21T05:51:05.124Z,993
2022-11-21T05:54:05.193Z,993
2022-11-21T05:57:05.152Z,993
2022-11-21T06:00:05.262Z,993
2022-11-21T06:03:05.382Z,993
2022-11-21T06:06:05.236Z,993
2022-11-21T06:09:05.094Z,993
2022-11-21T06:12:05.138Z,993
2022-11-21T06:15:05.178Z,993
2022-11-21T06:18:05.216Z,993
2022-11-21T06:21:05.159Z,993
2022-11-21T06:24:05.184Z,993
2022-11-21T06:27:05.192Z,993
2022-11-21T06:30:05.239Z,993
2022-11-21T06:33:05.405Z,993
2022-11-21T06:36:05.167Z,993
2022-11-21T06:39:05.179Z,993
2022-11-21T06:42:05.126Z,993
2022-11-21T06:45:05.304Z,993
2022-11-21T06:48:05.153Z,993
2022-11-21T06:51:05.200Z,993
2022-11-21T06:54:05.266Z,993
2022-11-21T06:57:05.240Z,993
2022-11-21T07:00:05.367Z,993
2022-11-21T07:03:08.095Z,993
2022-11-21T07:06:05.286Z,993
2022-11-21T07:09:50.417Z,993
2022-11-21T07:12:05.268Z,993
2022-11-21T07:15:05.345Z,993
2022-11-21T07:18:05.221Z,993
2022-11-21T07:21:05.263Z,993
2022-11-21T07:24:05.298Z,993
2022-11-21T07:27:05.279Z,993
2022-11-21T07:30:05.249Z,993
2022-11-21T07:33:05.256Z,993
2022-11-21T07:36:05.219Z,993
2022-11-21T07:39:05.275Z,993
2022-11-21T07:42:05.220Z,993
2022-11-21T07:45:05.216Z,993
2022-11-21T07:48:05.226Z,993
2022-11-21T07:51:05.314Z,993
2022-11-21T07:54:05.166Z,993
2022-11-21T07:57:05.191Z,993
2022-11-21T08:00:05.453Z,994
2022-11-21T08:03:05.188Z,994
2022-11-21T08:06:05.232Z,994
2022-11-21T08:09:05.294Z,994
2022-11-21T08:12:05.228Z,994
2022-11-21T08:15:05.265Z,994
2022-11-21T08:18:05.219Z,994
2022-11-21T08:21:05.214Z,994
2022-11-21T08:24:05.192Z,993
2022-11-21T08:27:05.291Z,993
2022-11-21T08:30:05.399Z,993
2022-11-21T08:33:05.243Z,993
2022-11-21T08:36:05.213Z,993
2022-11-21T08:39:05.250Z,993
2022-11-21T08:42:05.235Z,993
2022-11-21T08:45:05.307Z,993
2022-11-21T08:48:05.259Z,993
2022-11-21T08:51:05.839Z,993
2022-11-21T08:54:05.217Z,993
2022-11-21T08:57:05.352Z,994
2022-11-21T09:00:05.326Z,994
2022-11-21T09:03:05.297Z,994
2022-11-21T09:06:05.272Z,994
2022-11-21T09:09:05.339Z,994
2022-11-21T09:12:05.226Z,994
2022-11-21T09:15:05.304Z,994
2022-11-21T09:18:05.305Z,994
2022-11-21T09:21:05.268Z,994
2022-11-21T09:24:05.229Z,994
2022-11-21T09:27:05.196Z,993
2022-11-21T09:30:05.356Z,993
2022-11-21T09:33:05.282Z,993
2022-11-21T09:36:05.210Z,993
2022-11-21T09:39:05.364Z,993
2022-11-21T09:42:05.244Z,993
2022-11-21T09:45:05.323Z,993
2022-11-21T09:48:05.343Z,993
2022-11-21T09:51:05.201Z,993
2022-11-21T09:54:05.326Z,993
2022-11-21T09:57:05.203Z,994
2022-11-21T10:00:05.328Z,994
2022-11-21T10:03:05.196Z,994
2022-11-21T10:06:05.323Z,994
2022-11-21T10:09:05.447Z,994
2022-11-21T10:12:05.252Z,994
2022-11-21T10:15:05.239Z,994
2022-11-21T10:21:05.256Z,993
2022-11-21T10:24:05.372Z,993
2022-11-21T10:27:05.329Z,993
2022-11-21T10:30:05.378Z,993
2022-11-21T10:33:05.257Z,993
2022-11-21T10:36:05.249Z,993
2022-11-21T10:39:05.303Z,993
2022-11-21T10:42:05.234Z,993
2022-11-21T10:45:05.315Z,993
2022-11-21T10:48:12.703Z,993
2022-11-21T10:51:05.215Z,993
2022-11-21T10:54:12.276Z,993
2022-11-21T10:57:05.243Z,994
2022-11-21T11:00:05.407Z,994
2022-11-21T11:03:05.247Z,993
2022-11-21T11:06:05.303Z,993
2022-11-21T11:09:05.349Z,993
2022-11-21T11:12:05.273Z,993
2022-11-21T11:15:05.300Z,993
2022-11-21T11:18:14.063Z,993
2022-11-21T11:21:05.258Z,993
2022-11-21T11:24:05.304Z,993
2022-11-21T11:27:05.461Z,993
2022-11-21T11:30:05.604Z,993
2022-11-21T11:33:06.183Z,993
2022-11-21T11:36:05.379Z,993
2022-11-21T11:39:05.304Z,993
2022-11-21T11:42:05.250Z,993
2022-11-21T11:45:05.276Z,993
2022-11-21T11:48:05.387Z,992
2022-11-21T11:51:05.287Z,992
2022-11-21T11:54:06.016Z,992
2022-11-21T11:57:05.184Z,993
2022-11-21T12:00:05.480Z,993
2022-11-21T12:03:05.193Z,993
2022-11-21T12:06:13.722Z,992
2022-11-21T12:09:05.546Z,992
2022-11-21T12:12:05.322Z,992
2022-11-21T12:15:05.402Z,992
2022-11-21T12:18:05.224Z,992
2022-11-21T12:21:05.287Z,992
2022-11-21T12:24:05.257Z,992
2022-11-21T12:27:05.452Z,992
2022-11-21T12:30:05.348Z,992
2022-11-21T12:33:13.523Z,992
2022-11-21T12:36:23.046Z,992
2022-11-21T12:39:05.271Z,992
2022-11-21T12:42:05.295Z,992
2022-11-21T12:45:05.245Z,992
2022-11-21T12:48:05.215Z,992
2022-11-21T12:51:05.233Z,992
2022-11-21T12:54:05.174Z,992
2022-11-21T12:57:05.653Z,992
2022-11-21T13:00:05.353Z,992
2022-11-21T13:06:06.503Z,992
2022-11-21T13:12:05.321Z,992
2022-11-21T13:15:05.573Z,992
2022-11-21T13:18:05.260Z,992
2022-11-21T13:21:05.269Z,992
2022-11-21T13:24:05.358Z,992
2022-11-21T13:27:05.585Z,992
2022-11-21T13:30:05.291Z,991
2022-11-21T13:33:05.212Z,991
2022-11-21T13:36:05.380Z,991
2022-11-21T13:39:05.336Z,991
2022-11-21T13:42:05.333Z,991
2022-11-21T13:45:05.321Z,991
2022-11-21T13:48:05.356Z,991
2022-11-21T13:51:05.244Z,991
2022-11-21T13:54:05.228Z,992
2022-11-21T13:57:05.297Z,992
2022-11-21T14:00:05.402Z,992
2022-11-21T14:03:05.194Z,992
2022-11-21T14:06:05.233Z,991
2022-11-21T14:09:05.248Z,991
2022-11-21T14:12:05.233Z,991
2022-11-21T14:15:05.218Z,991
2022-11-21T14:18:05.219Z,991
2022-11-21T14:21:05.378Z,991
2022-11-21T14:24:05.299Z,991
2022-11-21T14:27:05.268Z,991
2022-11-21T14:30:05.416Z,991
2022-11-21T14:33:05.269Z,991
2022-11-21T14:36:05.223Z,991
2022-11-21T14:39:48.998Z,991
2022-11-21T14:42:05.225Z,991
2022-11-21T14:45:05.240Z,991
2022-11-21T14:48:05.289Z,991
2022-11-21T14:51:06.457Z,991
2022-11-21T14:54:05.264Z,991
2022-11-21T14:57:05.319Z,991
2022-11-21T15:00:05.739Z,991
2022-11-21T15:03:05.812Z,991
2022-11-21T15:06:11.848Z,991
2022-11-21T15:12:05.278Z,991
2022-11-21T15:15:05.323Z,991
2022-11-21T15:18:32.766Z,991
2022-11-21T15:21:05.171Z,991
2022-11-21T15:24:05.246Z,991
2022-11-21T15:27:05.261Z,990
2022-11-21T15:30:05.546Z,990
2022-11-21T15:33:05.232Z,990
2022-11-21T15:36:05.218Z,990
2022-11-21T15:39:05.305Z,990
2022-11-21T15:42:05.185Z,991
2022-11-21T15:45:05.222Z,991
2022-11-21T15:48:05.211Z,990
2022-11-21T15:51:05.188Z,990
2022-11-21T15:54:05.251Z,990
2022-11-21T15:57:05.203Z,990
2022-11-21T16:00:05.208Z,990
2022-11-21T16:03:05.202Z,990
2022-11-21T16:06:05.380Z,990
2022-11-21T16:09:05.264Z,990
2022-11-21T16:12:05.191Z,990
2022-11-21T16:15:05.193Z,990
2022-11-21T16:18:05.232Z,990
2022-11-21T16:21:05.152Z,990
2022-11-21T16:24:05.220Z,990
2022-11-21T16:27:05.148Z,990
2022-11-21T16:30:05.251Z,990
2022-11-21T16:33:05.197Z,990
2022-11-21T16:36:05.189Z,990
2022-11-21T16:39:20.197Z,990
2022-11-21T16:42:05.212Z,990
2022-11-21T16:45:05.250Z,990
2022-11-21T16:48:05.271Z,990
2022-11-21T16:51:05.163Z,990
2022-11-21T16:54:13.583Z,990
2022-11-21T16:57:05.414Z,990
2022-11-21T17:00:05.558Z,990
2022-11-21T17:03:05.169Z,990
2022-11-21T17:06:05.216Z,990
2022-11-21T17:09:05.272Z,989
2022-11-21T17:12:05.238Z,989
2022-11-21T17:15:05.478Z,989
2022-11-21T17:18:05.234Z,989
2022-11-21T17:21:05.197Z,989
2022-11-21T17:24:05.198Z,989
2022-11-21T17:27:05.354Z,989
2022-11-21T17:30:05.231Z,989
2022-11-21T17:33:05.177Z,990
2022-11-21T17:36:05.264Z,989
2022-11-21T17:39:05.233Z,989
2022-11-21T17:42:05.297Z,989
2022-11-21T17:45:05.219Z,989
2022-11-21T17:48:05.181Z,989
2022-11-21T17:51:05.204Z,989
2022-11-21T17:54:05.254Z,989
2022-11-21T17:57:05.153Z,989
2022-11-21T18:00:05.218Z,989
2022-11-21T18:03:05.195Z,989
2022-11-21T18:06:05.197Z,989
2022-11-21T18:09:05.122Z,988
2022-11-21T18:12:05.164Z,988
2022-11-21T18:15:05.211Z,988
2022-11-21T18:18:05.326Z,988
2022-11-21T18:21:05.165Z,988
2022-11-21T18:24:05.946Z,988
2022-11-21T18:27:05.418Z,988
2022-11-21T18:30:05.290Z,988
2022-11-21T18:33:05.121Z,988
2022-11-21T18:36:05.262Z,988
2022-11-21T18:39:17.957Z,988
2022-11-21T18:42:05.185Z,988
2022-11-21T18:45:05.588Z,988
2022-11-21T18:48:05.332Z,988
2022-11-21T18:51:06.010Z,988
2022-11-21T18:54:05.346Z,988
2022-11-21T18:57:05.241Z,988
2022-11-21T19:00:05.438Z,988
2022-11-21T19:03:05.380Z,988
2022-11-21T19:06:05.163Z,988
2022-11-21T19:09:05.273Z,988
2022-11-21T19:12:05.209Z,988
2022-11-21T19:15:05.225Z,988
2022-11-21T19:18:05.293Z,988
2022-11-21T19:21:05.290Z,988
2022-11-21T19:24:05.330Z,988
2022-11-21T19:27:05.230Z,987
2022-11-21T19:30:05.188Z,987
2022-11-21T19:33:05.331Z,987
2022-11-21T19:36:05.269Z,987
2022-11-21T19:39:05.255Z,987
2022-11-21T19:42:05.221Z,987
2022-11-21T19:45:05.176Z,987
2022-11-21T19:48:05.302Z,987
2022-11-21T19:51:05.210Z,987
2022-11-21T19:54:05.204Z,987
2022-11-21T19:57:08.149Z,987
2022-11-21T20:00:05.299Z,987
2022-11-21T20:03:05.270Z,987
2022-11-21T20:06:05.177Z,987
2022-11-21T20:09:05.233Z,987
2022-11-21T20:12:05.248Z,987
2022-11-21T20:15:05.194Z,987
2022-11-21T20:18:05.247Z,987
2022-11-21T20:21:05.190Z,988
2022-11-21T20:24:05.198Z,988
2022-11-21T20:27:05.208Z,988
2022-11-21T20:30:05.286Z,988
2022-11-21T20:33:11.539Z,988
2022-11-21T20:36:05.308Z,988
2022-11-21T20:39:05.199Z,988
2022-11-21T20:42:05.162Z,988
2022-11-21T20:48:20.946Z,988
2022-11-21T20:54:08.696Z,988
2022-11-21T20:57:07.279Z,988
2022-11-21T21:00:05.334Z,988
2022-11-21T21:03:05.262Z,988
2022-11-21T21:06:11.768Z,987
2022-11-21T21:09:05.213Z,987
2022-11-21T21:12:05.197Z,987
2022-11-21T21:15:05.415Z,988
2022-11-21T21:18:05.235Z,988
2022-11-21T21:21:21.642Z,988
2022-11-21T21:24:05.149Z,988
2022-11-21T21:27:05.116Z,988
2022-11-21T21:30:05.265Z,988
2022-11-21T21:33:05.194Z,988
2022-11-21T21:36:05.214Z,988
2022-11-21T21:39:05.470Z,988
2022-11-21T21:42:05.205Z,988
2022-11-21T21:45:05.759Z,988
2022-11-21T21:48:05.210Z,988
2022-11-21T21:51:05.187Z,988
2022-11-21T21:54:05.162Z,988
2022-11-21T21:57:05.206Z,988
2022-11-21T22:00:05.233Z,988
2022-11-21T22:03:05.136Z,988
2022-11-21T22:06:05.208Z,988
2022-11-21T22:09:05.188Z,988
2022-11-21T22:12:05.259Z,988
2022-11-21T22:15:05.235Z,988
2022-11-21T22:18:05.244Z,988
2022-11-21T22:21:05.228Z,988
2022-11-21T22:24:43.927Z,988
2022-11-21T22:27:05.193Z,987
2022-11-21T22:30:05.171Z,987
2022-11-21T22:33:05.135Z,987
2022-11-21T22:36:05.276Z,987
2022-11-21T22:39:05.239Z,987
2022-11-21T22:42:05.201Z,987
2022-11-21T22:45:05.218Z,987
2022-11-21T22:48:05.154Z,987
2022-11-21T22:51:05.172Z,987
2022-11-21T22:54:05.160Z,987
2022-11-21T22:57:05.233Z,987
2022-11-21T23:00:06.124Z,987
2022-11-21T23:03:05.109Z,987
2022-11-21T23:06:05.182Z,987
2022-11-21T23:09:05.176Z,986
2022-11-21T23:12:05.141Z,986
2022-11-21T23:15:05.265Z,986
2022-11-21T23:18:05.181Z,986
2022-11-21T23:21:05.225Z,986
2022-11-21T23:24:05.230Z,986
2022-11-21T23:27:05.179Z,986
2022-11-21T23:30:05.224Z,986
2022-11-21T23:33:05.228Z,986
2022-11-21T23:36:05.203Z,986
2022-11-21T23:39:05.129Z,986
2022-11-21T23:42:05.939Z,986
2022-11-21T23:45:05.269Z,986
2022-11-21T23:48:05.246Z,986
2022-11-21T23:51:05.127Z,986
2022-11-21T23:54:05.285Z,986
2022-11-21T23:57:05.165Z,986
